Time;durP1;ratioP1;P1;durP2;ratioP2;P2;SDS_P1;SDS_P2;PMS_P1;PMS_P2;Temp;Humidity;BMP_temperature;BMP_pressure;BME280_temperature;BME280_humidity;BME280_pressure;Samples;Min_cycle;Max_cycle;Signal;HPM_P1;HPM_P2
2024/01/16 00:00:08;;;;;;;;;;;2.40;99.90;;;;;;7330602;19;109142;-65
2024/01/16 00:02:36;;;;;;;;;;;2.40;99.90;;;;;;7333204;19;109025;-65
2024/01/16 00:05:03;;;;;;;;;;;2.40;99.90;;;;;;7333920;19;109910;-64
2024/01/16 00:07:32;;;;;;;;;;;2.50;99.90;;;;;;7329829;19;110076;-64
2024/01/16 00:09:59;;;;;;;;;;;2.50;99.90;;;;;;7339000;19;108555;-64
2024/01/16 00:12:26;;;;;;;;;;;2.60;99.90;;;;;;7329290;19;110544;-64
2024/01/16 00:14:53;;;;;;;;;;;2.60;99.90;;;;;;7334913;19;110509;-64
2024/01/16 00:17:20;;;;;;;;;;;2.60;99.90;;;;;;7330750;19;108909;-64
2024/01/16 00:19:47;;;;;;;;;;;2.70;99.90;;;;;;7333167;19;109087;-64
2024/01/16 00:22:14;;;;;;;;;;;2.60;99.90;;;;;;7329879;19;109459;-64
2024/01/16 00:24:42;;;;;;;;;;;2.70;99.90;;;;;;7331753;19;108677;-64
2024/01/16 00:27:09;;;;;;;;;;;2.70;99.90;;;;;;7328614;19;109244;-64
2024/01/16 00:29:38;;;;;;;;;;;2.60;99.90;;;;;;7332639;19;110206;-64
2024/01/16 00:32:08;;;;;;;;;;;2.60;99.90;;;;;;7337407;19;111178;-64
2024/01/16 00:34:35;;;;;;;;;;;2.60;99.90;;;;;;7332294;19;110150;-63
2024/01/16 00:37:02;;;;;;;;;;;2.60;99.90;;;;;;7329797;19;110327;-64
2024/01/16 00:39:30;;;;;;;;;;;2.70;99.90;;;;;;7333678;19;109213;-64
2024/01/16 00:41:57;;;;;;;;;;;2.70;99.90;;;;;;7333786;19;111714;-64
2024/01/16 00:44:24;;;;;;;;;;;2.70;99.90;;;;;;7337360;19;109311;-64
2024/01/16 00:46:51;;;;;;;;;;;2.70;99.90;;;;;;7338649;19;109286;-64
2024/01/16 00:49:18;;;;;;;;;;;2.70;99.90;;;;;;7337453;19;109616;-64
2024/01/16 00:51:47;;;;;;;;;;;2.70;99.90;;;;;;7339049;19;114421;-64
2024/01/16 00:54:14;;;;;;;;;;;2.70;99.90;;;;;;7340976;19;109364;-64
2024/01/16 00:56:42;;;;;;;;;;;2.70;99.90;;;;;;7337256;19;108670;-64
2024/01/16 00:59:09;;;;;;;;;;;2.70;99.90;;;;;;7335761;19;109172;-64
2024/01/16 01:01:39;;;;;;;;;;;2.70;99.90;;;;;;7339679;19;108699;-63
2024/01/16 01:04:06;;;;;;;;;;;2.70;99.90;;;;;;7341049;19;109296;-64
2024/01/16 01:06:35;;;;;;;;;;;2.70;99.90;;;;;;7335571;19;113262;-64
2024/01/16 01:09:02;;;;;;;;;;;2.70;99.90;;;;;;7337021;19;108943;-64
2024/01/16 01:11:30;;;;;;;;;;;2.80;99.90;;;;;;7337584;19;109793;-64
2024/01/16 01:13:57;;;;;;;;;;;2.80;99.90;;;;;;7335420;19;110807;-64
2024/01/16 01:16:24;;;;;;;;;;;2.80;99.90;;;;;;7346606;19;109247;-64
2024/01/16 01:18:51;;;;;;;;;;;2.80;99.90;;;;;;7336827;19;109769;-64
2024/01/16 01:21:18;;;;;;;;;;;2.80;99.90;;;;;;7338150;19;108748;-64
2024/01/16 01:23:46;;;;;;;;;;;2.80;99.90;;;;;;7339029;19;110224;-63
2024/01/16 01:26:17;;;;;;;;;;;2.80;99.90;;;;;;7338371;19;110081;-63
2024/01/16 01:28:48;;;;;;;;;;;2.80;99.90;;;;;;7337321;19;109247;-64
2024/01/16 01:31:15;;;;;;;;;;;2.80;99.90;;;;;;7338278;19;108863;-64
2024/01/16 01:33:45;;;;;;;;;;;2.80;99.90;;;;;;7333679;19;115125;-64
2024/01/16 01:36:12;;;;;;;;;;;2.80;99.90;;;;;;7341655;19;108726;-64
2024/01/16 01:38:40;;;;;;;;;;;2.70;99.90;;;;;;7337301;19;108625;-64
2024/01/16 01:41:07;;;;;;;;;;;2.70;99.90;;;;;;7338375;19;109730;-64
2024/01/16 01:43:34;;;;;;;;;;;2.70;99.90;;;;;;7337382;19;109560;-63
2024/01/16 01:46:10;;;;;;;;;;;2.70;99.90;;;;;;7334211;19;110380;-64
2024/01/16 01:48:37;;;;;;;;;;;2.70;99.90;;;;;;7336079;19;109336;-65
2024/01/16 01:51:05;;;;;;;;;;;2.70;99.90;;;;;;7335831;19;110836;-64
2024/01/16 01:53:33;;;;;;;;;;;2.60;99.90;;;;;;7339928;19;110195;-64
2024/01/16 01:56:03;;;;;;;;;;;2.50;99.90;;;;;;7338550;19;108695;-64
2024/01/16 01:58:30;;;;;;;;;;;2.50;99.90;;;;;;7338504;19;108977;-64
2024/01/16 02:00:58;;;;;;;;;;;2.40;99.90;;;;;;7339184;19;109305;-64
2024/01/16 02:03:27;;;;;;;;;;;2.40;99.90;;;;;;7338526;19;110846;-64
2024/01/16 02:05:55;;;;;;;;;;;2.40;99.90;;;;;;7338073;19;109807;-65
2024/01/16 02:08:22;;;;;;;;;;;2.30;99.90;;;;;;7336624;19;108683;-64
2024/01/16 02:10:49;;;;;;;;;;;2.30;99.90;;;;;;7338883;19;109945;-63
2024/01/16 02:13:20;;;;;;;;;;;2.20;99.90;;;;;;7335475;19;110182;-63
2024/01/16 02:15:48;;;;;;;;;;;2.10;99.90;;;;;;7336297;19;109970;-64
2024/01/16 02:18:16;;;;;;;;;;;2.10;99.90;;;;;;7336142;19;109378;-63
2024/01/16 02:20:43;;;;;;;;;;;2.00;99.90;;;;;;7342484;19;109497;-63
2024/01/16 02:23:12;;;;;;;;;;;2.00;99.90;;;;;;7333720;19;109180;-64
2024/01/16 02:25:41;;;;;;;;;;;1.90;99.90;;;;;;7334491;19;110509;-63
2024/01/16 02:28:08;;;;;;;;;;;1.90;99.90;;;;;;7335423;19;110017;-64
2024/01/16 02:30:35;;;;;;;;;;;1.90;99.90;;;;;;7335047;19;108823;-64
2024/01/16 02:33:03;;;;;;;;;;;1.90;99.90;;;;;;7337125;19;110612;-64
2024/01/16 02:35:31;;;;;;;;;;;1.90;99.90;;;;;;7336097;19;108658;-63
2024/01/16 02:38:01;;;;;;;;;;;1.80;99.90;;;;;;7335543;19;108822;-64
2024/01/16 02:40:28;;;;;;;;;;;1.80;99.90;;;;;;7336751;19;110270;-64
2024/01/16 02:42:56;;;;;;;;;;;1.80;99.90;;;;;;7342565;19;108969;-64
2024/01/16 02:45:26;;;;;;;;;;;1.80;99.90;;;;;;7338426;19;109403;-64
2024/01/16 02:47:53;;;;;;;;;;;1.80;99.90;;;;;;7336149;19;108776;-63
2024/01/16 02:50:21;;;;;;;;;;;1.80;99.90;;;;;;7330922;19;109957;-64
2024/01/16 02:52:48;;;;;;;;;;;1.80;99.90;;;;;;7336072;19;110162;-63
2024/01/16 02:55:21;;;;;;;;;;;1.70;99.90;;;;;;7336335;19;109031;-64
2024/01/16 02:57:51;;;;;;;;;;;1.60;99.90;;;;;;7335232;19;109038;-63
2024/01/16 03:00:18;;;;;;;;;;;1.60;99.90;;;;;;7334426;19;109993;-61
2024/01/16 03:02:45;;;;;;;;;;;1.50;99.90;;;;;;7334427;19;109010;-63
2024/01/16 03:05:13;;;;;;;;;;;1.50;99.90;;;;;;7340538;19;109322;-63
2024/01/16 03:07:40;;;;;;;;;;;1.50;99.90;;;;;;7334881;19;109716;-64
2024/01/16 03:10:08;;;;;;;;;;;1.40;99.90;;;;;;7336134;19;108558;-62
2024/01/16 03:12:35;;;;;;;;;;;1.50;99.90;;;;;;7335894;19;110141;-63
2024/01/16 03:15:02;;;;;;;;;;;1.40;99.90;;;;;;7334708;19;108404;-64
2024/01/16 03:17:29;;;;;;;;;;;1.30;99.90;;;;;;7335333;19;109029;-63
2024/01/16 03:19:57;;;;;;;;;;;1.40;99.90;;;;;;7339405;19;109174;-63
2024/01/16 03:22:24;;;;;;;;;;;1.40;99.90;;;;;;7334549;19;108827;-63
2024/01/16 03:24:51;;;;;;;;;;;1.30;99.90;;;;;;7335500;19;109071;-62
2024/01/16 03:27:18;;;;;;;;;;;1.30;99.90;;;;;;7339234;19;110736;-63
2024/01/16 03:29:48;;;;;;;;;;;1.30;99.90;;;;;;7332757;19;109325;-63
2024/01/16 03:32:16;;;;;;;;;;;1.20;99.90;;;;;;7331497;19;109728;-63
2024/01/16 03:34:44;;;;;;;;;;;1.20;99.90;;;;;;7330643;19;111234;-63
2024/01/16 03:37:11;;;;;;;;;;;1.30;99.90;;;;;;7335439;19;108470;-63
2024/01/16 03:39:38;;;;;;;;;;;1.20;99.90;;;;;;7333516;19;110249;-63
2024/01/16 03:42:05;;;;;;;;;;;1.20;99.90;;;;;;7336092;19;110783;-63
2024/01/16 03:44:38;;;;;;;;;;;1.10;99.90;;;;;;7333046;19;112558;-63
2024/01/16 03:47:06;;;;;;;;;;;1.10;99.90;;;;;;7335214;19;109312;-63
2024/01/16 03:49:33;;;;;;;;;;;1.00;99.90;;;;;;7339594;19;108660;-63
2024/01/16 03:52:00;;;;;;;;;;;1.00;99.90;;;;;;7333018;19;109856;-63
2024/01/16 03:54:27;;;;;;;;;;;1.00;99.90;;;;;;7335824;19;110175;-63
2024/01/16 03:56:55;;;;;;;;;;;1.00;99.90;;;;;;7334332;19;108710;-64
2024/01/16 03:59:23;;;;;;;;;;;1.00;99.90;;;;;;7331245;19;109091;-64
2024/01/16 04:01:50;;;;;;;;;;;1.00;99.90;;;;;;7335003;19;108940;-63
2024/01/16 04:04:17;;;;;;;;;;;0.90;99.90;;;;;;7333768;19;108617;-63
2024/01/16 04:06:45;;;;;;;;;;;0.90;99.90;;;;;;7331493;19;109176;-63
2024/01/16 04:09:14;;;;;;;;;;;0.90;99.90;;;;;;7336572;19;108998;-63
2024/01/16 04:11:41;;;;;;;;;;;0.80;99.90;;;;;;7331895;19;109146;-63
2024/01/16 04:14:08;;;;;;;;;;;0.90;99.90;;;;;;7330962;19;109259;-63
2024/01/16 04:16:35;;;;;;;;;;;0.90;99.90;;;;;;7340911;19;110221;-63
2024/01/16 04:19:03;;;;;;;;;;;0.90;99.90;;;;;;7338213;19;109105;-63
2024/01/16 04:21:30;;;;;;;;;;;0.80;99.90;;;;;;7340583;19;109760;-62
2024/01/16 04:23:57;;;;;;;;;;;0.80;99.90;;;;;;7340347;19;109473;-62
2024/01/16 04:26:24;;;;;;;;;;;0.70;99.90;;;;;;7337035;19;109558;-63
2024/01/16 04:28:51;;;;;;;;;;;0.70;99.90;;;;;;7337324;19;109835;-62
2024/01/16 04:31:21;;;;;;;;;;;0.70;99.90;;;;;;7344876;19;110627;-63
2024/01/16 04:33:48;;;;;;;;;;;0.60;99.90;;;;;;7342696;19;108822;-63
2024/01/16 04:36:16;;;;;;;;;;;0.70;99.90;;;;;;7339062;19;108598;-63
2024/01/16 04:38:43;;;;;;;;;;;0.70;99.90;;;;;;7342863;19;108911;-62
2024/01/16 04:41:10;;;;;;;;;;;0.70;99.90;;;;;;7340650;19;109032;-63
2024/01/16 04:43:37;;;;;;;;;;;0.80;99.90;;;;;;7340012;19;108608;-63
2024/01/16 04:46:04;;;;;;;;;;;0.80;99.90;;;;;;7337991;19;109691;-62
2024/01/16 04:48:31;;;;;;;;;;;0.90;99.90;;;;;;7336785;19;108945;-62
2024/01/16 04:50:59;;;;;;;;;;;0.90;99.90;;;;;;7340857;19;109089;-62
2024/01/16 04:53:26;;;;;;;;;;;0.90;99.90;;;;;;7343310;19;110154;-63
2024/01/16 04:55:53;;;;;;;;;;;0.80;99.90;;;;;;7339451;19;111144;-63
2024/01/16 04:58:20;;;;;;;;;;;0.80;99.90;;;;;;7338315;19;109067;-62
2024/01/16 05:00:47;;;;;;;;;;;0.80;99.90;;;;;;7340796;19;108422;-62
2024/01/16 05:03:14;;;;;;;;;;;0.90;99.90;;;;;;7333095;19;111088;-62
2024/01/16 05:05:41;;;;;;;;;;;0.80;99.90;;;;;;7337852;19;109532;-63
2024/01/16 05:08:08;;;;;;;;;;;0.90;99.90;;;;;;7340506;19;109883;-63
2024/01/16 05:10:36;;;;;;;;;;;0.80;99.90;;;;;;7337219;19;109445;-63
2024/01/16 05:13:03;;;;;;;;;;;0.80;99.90;;;;;;7338054;19;111478;-62
2024/01/16 05:15:30;;;;;;;;;;;0.80;99.90;;;;;;7347025;19;108758;-62
2024/01/16 05:17:57;;;;;;;;;;;0.70;99.90;;;;;;7336799;19;109142;-63
2024/01/16 05:20:24;;;;;;;;;;;0.80;99.90;;;;;;7338933;19;109436;-61
2024/01/16 05:22:52;;;;;;;;;;;0.80;99.90;;;;;;7337702;19;109318;-61
2024/01/16 05:25:19;;;;;;;;;;;0.80;99.90;;;;;;7337480;19;111099;-62
2024/01/16 05:27:47;;;;;;;;;;;0.80;99.90;;;;;;7337781;19;110606;-62
2024/01/16 05:30:14;;;;;;;;;;;0.80;99.90;;;;;;7335285;19;108877;-62
2024/01/16 05:32:41;;;;;;;;;;;0.70;99.90;;;;;;7336018;19;109726;-65
2024/01/16 05:35:09;;;;;;;;;;;0.70;99.90;;;;;;7337940;19;108667;-62
2024/01/16 05:37:36;;;;;;;;;;;0.70;99.90;;;;;;7344009;19;111008;-62
2024/01/16 05:40:04;;;;;;;;;;;0.70;99.90;;;;;;7341380;19;108391;-62
2024/01/16 05:42:31;;;;;;;;;;;0.70;99.90;;;;;;7340203;19;109165;-64
2024/01/16 05:44:58;;;;;;;;;;;0.70;99.90;;;;;;7333761;19;110673;-62
2024/01/16 05:47:27;;;;;;;;;;;0.70;99.90;;;;;;7340362;19;108509;-63
2024/01/16 05:49:55;;;;;;;;;;;0.70;99.90;;;;;;7334229;19;109369;-63
2024/01/16 05:52:23;;;;;;;;;;;0.80;99.90;;;;;;7337389;19;112708;-62
2024/01/16 05:54:50;;;;;;;;;;;0.80;99.90;;;;;;7335696;19;108561;-64
2024/01/16 05:57:17;;;;;;;;;;;0.80;99.90;;;;;;7342023;19;109542;-61
2024/01/16 05:59:44;;;;;;;;;;;0.80;99.90;;;;;;7336856;19;108459;-62
2024/01/16 06:02:14;;;;;;;;;;;0.80;99.90;;;;;;7334668;19;110098;-62
2024/01/16 06:04:42;;;;;;;;;;;0.80;99.90;;;;;;7334351;19;110214;-62
2024/01/16 06:07:12;;;;;;;;;;;0.70;99.90;;;;;;7337888;19;108783;-62
2024/01/16 06:09:42;;;;;;;;;;;0.70;99.90;;;;;;7335169;19;108673;-62
2024/01/16 06:12:10;;;;;;;;;;;0.70;99.90;;;;;;7335997;19;110857;-62
2024/01/16 06:14:37;;;;;;;;;;;0.70;99.90;;;;;;7329873;19;110534;-63
2024/01/16 06:17:08;;;;;;;;;;;0.70;99.90;;;;;;7335190;19;109191;-62
2024/01/16 06:19:35;;;;;;;;;;;0.70;99.90;;;;;;7342963;19;110860;-64
2024/01/16 06:22:02;;;;;;;;;;;0.70;99.90;;;;;;7336549;19;110853;-63
2024/01/16 06:24:36;;;;;;;;;;;0.70;99.90;;;;;;7333214;19;108304;-63
2024/01/16 06:27:07;;;;;;;;;;;0.70;99.90;;;;;;7335482;19;108632;-63
2024/01/16 06:29:34;;;;;;;;;;;0.70;99.90;;;;;;7336626;19;108976;-63
2024/01/16 06:32:02;;;;;;;;;;;0.70;99.90;;;;;;7334267;19;110919;-62
2024/01/16 06:34:29;;;;;;;;;;;0.70;99.90;;;;;;7333845;19;109441;-62
2024/01/16 06:36:57;;;;;;;;;;;0.70;99.90;;;;;;7334658;19;108462;-62
2024/01/16 06:39:24;;;;;;;;;;;0.70;99.90;;;;;;7333506;19;109539;-63
2024/01/16 06:41:52;;;;;;;;;;;0.70;99.90;;;;;;7340625;19;109297;-62
2024/01/16 06:44:22;;;;;;;;;;;0.70;99.90;;;;;;7333792;19;109800;-63
2024/01/16 06:46:51;;;;;;;;;;;0.70;99.90;;;;;;7335269;19;108726;-62
2024/01/16 06:49:18;;;;;;;;;;;0.70;99.90;;;;;;7335255;19;110100;-61
2024/01/16 06:51:46;;;;;;;;;;;0.60;99.90;;;;;;7333827;19;110851;-63
2024/01/16 06:54:13;;;;;;;;;;;0.60;99.90;;;;;;7336354;19;108987;-63
2024/01/16 06:56:40;;;;;;;;;;;0.70;99.90;;;;;;7335232;19;108849;-64
2024/01/16 06:59:07;;;;;;;;;;;0.60;99.90;;;;;;7335786;19;109326;-64
2024/01/16 07:01:38;;;;;;;;;;;0.60;99.90;;;;;;7334913;19;108907;-64
2024/01/16 07:04:05;;;;;;;;;;;0.70;99.90;;;;;;7339184;19;109264;-64
2024/01/16 07:06:32;;;;;;;;;;;0.60;99.90;;;;;;7335620;19;109537;-64
2024/01/16 07:09:00;;;;;;;;;;;0.60;99.90;;;;;;7333809;19;108693;-63
2024/01/16 07:11:27;;;;;;;;;;;0.60;99.90;;;;;;7332431;19;109082;-63
2024/01/16 07:13:54;;;;;;;;;;;0.60;99.90;;;;;;7329653;19;108595;-64
2024/01/16 07:16:21;;;;;;;;;;;0.60;99.90;;;;;;7332762;19;109139;-63
2024/01/16 07:18:48;;;;;;;;;;;0.60;99.90;;;;;;7331087;19;110121;-64
2024/01/16 07:21:16;;;;;;;;;;;0.60;99.90;;;;;;7332788;19;109638;-63
2024/01/16 07:23:43;;;;;;;;;;;0.60;99.90;;;;;;7334443;19;109377;-63
2024/01/16 07:26:10;;;;;;;;;;;0.60;99.90;;;;;;7337388;19;109546;-64
2024/01/16 07:28:38;;;;;;;;;;;0.60;99.90;;;;;;7334086;19;108396;-63
2024/01/16 07:31:05;;;;;;;;;;;0.60;99.90;;;;;;7334984;19;109901;-64
2024/01/16 07:33:33;;;;;;;;;;;0.60;99.90;;;;;;7333247;19;110698;-64
2024/01/16 07:36:00;;;;;;;;;;;0.70;99.90;;;;;;7333052;19;109288;-64
2024/01/16 07:38:28;;;;;;;;;;;0.70;99.90;;;;;;7333645;19;110765;-64
2024/01/16 07:40:56;;;;;;;;;;;0.70;99.90;;;;;;7338042;19;108960;-64
2024/01/16 07:43:23;;;;;;;;;;;0.70;99.90;;;;;;7330051;19;108441;-64
2024/01/16 07:45:50;;;;;;;;;;;0.70;99.90;;;;;;7332144;19;109116;-64
2024/01/16 07:48:17;;;;;;;;;;;0.70;99.90;;;;;;7335592;19;109341;-64
2024/01/16 07:50:45;;;;;;;;;;;0.70;99.90;;;;;;7329534;19;111759;-67
2024/01/16 07:53:13;;;;;;;;;;;0.60;99.90;;;;;;7330802;19;109063;-64
2024/01/16 07:55:41;;;;;;;;;;;0.70;99.90;;;;;;7336222;19;109753;-63
2024/01/16 07:58:10;;;;;;;;;;;0.70;99.90;;;;;;7331635;19;110732;-63
2024/01/16 08:00:37;;;;;;;;;;;0.70;99.90;;;;;;7333616;19;110906;-63
2024/01/16 08:03:07;;;;;;;;;;;0.70;99.90;;;;;;7332008;19;108826;-64
2024/01/16 08:05:34;;;;;;;;;;;0.70;99.90;;;;;;7332905;19;109918;-64
2024/01/16 08:08:01;;;;;;;;;;;0.70;99.90;;;;;;7337854;19;109261;-64
2024/01/16 08:10:28;;;;;;;;;;;0.70;99.90;;;;;;7332926;19;109514;-64
2024/01/16 08:12:55;;;;;;;;;;;0.70;99.90;;;;;;7334176;19;108885;-64
2024/01/16 08:15:22;;;;;;;;;;;0.70;99.90;;;;;;7332132;19;111256;-63
2024/01/16 08:17:49;;;;;;;;;;;0.80;99.90;;;;;;7333186;19;109144;-63
2024/01/16 08:20:17;;;;;;;;;;;0.90;99.90;;;;;;7333647;19;108908;-64
2024/01/16 08:22:44;;;;;;;;;;;0.90;99.90;;;;;;7332610;19;109376;-63
2024/01/16 08:25:11;;;;;;;;;;;0.90;99.90;;;;;;7334739;19;109621;-63
2024/01/16 08:27:38;;;;;;;;;;;0.90;99.90;;;;;;7330951;19;109223;-63
2024/01/16 08:30:07;;;;;;;;;;;0.90;99.90;;;;;;7340990;19;108991;-63
2024/01/16 08:32:34;;;;;;;;;;;1.00;99.90;;;;;;7333098;19;109458;-63
2024/01/16 08:35:01;;;;;;;;;;;0.90;99.90;;;;;;7331165;19;109928;-63
2024/01/16 08:37:28;;;;;;;;;;;1.00;99.90;;;;;;7333393;19;110090;-63
2024/01/16 08:39:56;;;;;;;;;;;1.00;99.90;;;;;;7335094;19;109184;-62
2024/01/16 08:42:23;;;;;;;;;;;1.00;99.90;;;;;;7332330;19;109416;-63
2024/01/16 08:44:50;;;;;;;;;;;1.00;99.90;;;;;;7333063;19;112125;-63
2024/01/16 08:47:17;;;;;;;;;;;1.00;99.90;;;;;;7330369;19;109168;-64
2024/01/16 08:49:44;;;;;;;;;;;1.00;99.90;;;;;;7332363;19;109308;-63
2024/01/16 08:52:12;;;;;;;;;;;1.00;99.90;;;;;;7336387;19;110478;-63
2024/01/16 08:54:39;;;;;;;;;;;1.10;99.90;;;;;;7333615;19;109282;-63
2024/01/16 08:57:06;;;;;;;;;;;1.10;99.90;;;;;;7334678;19;109469;-64
2024/01/16 08:59:33;;;;;;;;;;;1.10;99.90;;;;;;7331894;19;108585;-63
2024/01/16 09:02:00;;;;;;;;;;;1.10;99.90;;;;;;7338300;19;109879;-63
2024/01/16 09:04:27;;;;;;;;;;;1.00;99.90;;;;;;7337046;19;109577;-63
2024/01/16 09:06:55;;;;;;;;;;;1.00;99.90;;;;;;7334768;19;108808;-64
2024/01/16 09:09:22;;;;;;;;;;;1.00;99.90;;;;;;7335127;19;109556;-64
2024/01/16 09:11:49;;;;;;;;;;;1.10;99.90;;;;;;7335318;19;110454;-63
2024/01/16 09:14:17;;;;;;;;;;;1.10;99.90;;;;;;7341243;19;109021;-64
2024/01/16 09:16:47;;;;;;;;;;;1.20;99.90;;;;;;7333123;19;109423;-65
2024/01/16 09:19:15;;;;;;;;;;;1.30;99.90;;;;;;7335276;19;108856;-67
2024/01/16 09:21:42;;;;;;;;;;;1.30;99.90;;;;;;7331971;19;109625;-65
2024/01/16 09:24:09;;;;;;;;;;;1.30;99.90;;;;;;7337441;19;110183;-64
2024/01/16 09:26:36;;;;;;;;;;;1.30;99.90;;;;;;7338175;19;109170;-68
2024/01/16 09:29:03;;;;;;;;;;;1.40;99.90;;;;;;7335588;19;108415;-68
2024/01/16 09:31:30;;;;;;;;;;;1.40;99.90;;;;;;7326524;19;112949;-68
2024/01/16 09:33:58;;;;;;;;;;;1.60;99.90;;;;;;7335997;19;109790;-69
2024/01/16 09:36:25;;;;;;;;;;;1.60;99.90;;;;;;7342720;19;108516;-69
2024/01/16 09:38:52;;;;;;;;;;;1.70;99.90;;;;;;7337963;19;109368;-68
2024/01/16 09:41:20;;;;;;;;;;;1.70;99.90;;;;;;7336975;19;110080;-68
2024/01/16 09:43:47;;;;;;;;;;;1.70;99.90;;;;;;7336967;19;109725;-70
2024/01/16 09:46:16;;;;;;;;;;;1.80;99.90;;;;;;7336076;19;108791;-71
2024/01/16 09:48:45;;;;;;;;;;;1.90;99.90;;;;;;7335759;19;110587;-67
2024/01/16 09:51:14;;;;;;;;;;;1.90;99.90;;;;;;7336344;19;109600;-67
2024/01/16 09:53:42;;;;;;;;;;;2.00;99.90;;;;;;7335409;19;109142;-68
2024/01/16 09:56:16;;;;;;;;;;;2.10;99.90;;;;;;7338954;19;109232;-72
2024/01/16 09:58:44;;;;;;;;;;;2.10;99.90;;;;;;7346267;19;109672;-76
2024/01/16 10:01:11;;;;;;;;;;;2.10;99.90;;;;;;7339188;19;108619;-71
2024/01/16 10:03:38;;;;;;;;;;;2.10;99.90;;;;;;7337028;19;109114;-69
2024/01/16 10:06:06;;;;;;;;;;;2.10;99.90;;;;;;7336037;19;111066;-71
2024/01/16 10:08:33;;;;;;;;;;;2.10;99.90;;;;;;7337355;19;109822;-67
2024/01/16 10:11:01;;;;;;;;;;;2.10;99.90;;;;;;7335072;19;110285;-68
2024/01/16 10:13:29;;;;;;;;;;;2.20;99.90;;;;;;7337713;19;108881;-67
2024/01/16 10:15:56;;;;;;;;;;;2.20;99.90;;;;;;7336224;19;110478;-68
2024/01/16 10:18:24;;;;;;;;;;;2.30;99.90;;;;;;7339683;19;109892;-68
2024/01/16 10:20:53;;;;;;;;;;;2.40;99.90;;;;;;7337720;19;109033;-68
2024/01/16 10:23:24;;;;;;;;;;;2.30;99.90;;;;;;7336894;19;113255;-68
2024/01/16 10:26:07;;;;;;;;;;;2.40;99.90;;;;;;7336695;19;108783;-70
2024/01/16 10:28:38;;;;;;;;;;;2.50;99.90;;;;;;7336336;19;109162;-68
2024/01/16 10:31:05;;;;;;;;;;;2.50;99.90;;;;;;7336143;19;110306;-77
2024/01/16 10:33:33;;;;;;;;;;;2.60;99.90;;;;;;7335235;19;108528;-76
2024/01/16 10:38:38;;;;;;;;;;;2.60;99.90;;;;;;7339970;19;110778;-73
2024/01/16 10:41:15;;;;;;;;;;;2.60;99.90;;;;;;7344770;19;109913;-77
2024/01/16 10:43:42;;;;;;;;;;;2.70;99.90;;;;;;7339235;19;110500;-68
2024/01/16 10:46:13;;;;;;;;;;;2.80;99.90;;;;;;7338530;19;111536;-68
2024/01/16 10:48:41;;;;;;;;;;;2.80;99.90;;;;;;7336842;19;109204;-68
2024/01/16 10:51:11;;;;;;;;;;;2.80;99.90;;;;;;7332826;19;109081;-69
2024/01/16 10:53:41;;;;;;;;;;;2.80;99.90;;;;;;7332458;19;109146;-68
2024/01/16 10:56:10;;;;;;;;;;;2.90;99.90;;;;;;7337428;19;108972;-68
2024/01/16 10:58:39;;;;;;;;;;;2.90;99.90;;;;;;7333928;19;109110;-68
2024/01/16 11:01:09;;;;;;;;;;;3.00;99.90;;;;;;7335220;19;108843;-68
2024/01/16 11:03:42;;;;;;;;;;;3.00;99.90;;;;;;7339657;19;110481;-68
2024/01/16 11:06:11;;;;;;;;;;;3.00;99.90;;;;;;7334549;19;109009;-68
2024/01/16 11:08:38;;;;;;;;;;;3.00;99.90;;;;;;7330793;19;109636;-69
2024/01/16 11:11:07;;;;;;;;;;;3.10;99.90;;;;;;7336399;19;109167;-67
2024/01/16 11:13:36;;;;;;;;;;;3.10;99.90;;;;;;7332569;19;108965;-69
2024/01/16 11:16:07;;;;;;;;;;;3.20;99.90;;;;;;7335779;19;109125;-67
2024/01/16 11:18:37;;;;;;;;;;;3.20;99.90;;;;;;7334171;19;109904;-68
2024/01/16 11:21:08;;;;;;;;;;;3.30;99.90;;;;;;7335456;19;109190;-68
2024/01/16 11:23:41;;;;;;;;;;;3.40;99.90;;;;;;7333969;19;108585;-68
2024/01/16 11:26:27;;;;;;;;;;;3.40;99.90;;;;;;7339845;19;109275;-68
2024/01/16 11:28:56;;;;;;;;;;;3.50;99.90;;;;;;7338875;19;108735;-68
2024/01/16 11:31:33;;;;;;;;;;;3.50;99.90;;;;;;7333484;19;109293;-67
2024/01/16 11:34:04;;;;;;;;;;;3.60;99.90;;;;;;7330718;19;108993;-66
2024/01/16 11:36:53;;;;;;;;;;;3.70;99.90;;;;;;7330855;19;109045;-68
2024/01/16 11:39:25;;;;;;;;;;;3.70;99.90;;;;;;7328265;19;110167;-67
2024/01/16 11:41:56;;;;;;;;;;;3.80;99.90;;;;;;7332044;19;108395;-67
2024/01/16 11:44:42;;;;;;;;;;;3.80;99.90;;;;;;7330925;19;109260;-67
2024/01/16 11:47:16;;;;;;;;;;;3.80;99.90;;;;;;7332182;19;110409;-67
2024/01/16 11:49:43;;;;;;;;;;;3.90;99.90;;;;;;7338389;19;109269;-67
2024/01/16 11:52:12;;;;;;;;;;;4.00;99.90;;;;;;7333705;19;109741;-67
2024/01/16 11:54:41;;;;;;;;;;;4.00;99.90;;;;;;7338303;19;111083;-67
2024/01/16 11:57:36;;;;;;;;;;;4.10;99.90;;;;;;7333219;19;109440;-67
2024/01/16 12:00:22;;;;;;;;;;;4.10;99.90;;;;;;7333171;19;116314;-67
2024/01/16 12:02:51;;;;;;;;;;;4.20;99.90;;;;;;7333300;19;110247;-66
2024/01/16 12:05:18;;;;;;;;;;;4.10;99.90;;;;;;7332677;19;109854;-68
2024/01/16 12:07:49;;;;;;;;;;;4.20;99.90;;;;;;7334121;19;109667;-66
2024/01/16 12:10:20;;;;;;;;;;;4.30;99.90;;;;;;7333284;19;108866;-66
2024/01/16 12:12:48;;;;;;;;;;;4.30;99.90;;;;;;7338530;19;109458;-66
2024/01/16 12:15:16;;;;;;;;;;;4.30;99.90;;;;;;7332852;19;108618;-67
2024/01/16 12:17:59;;;;;;;;;;;4.30;99.90;;;;;;7331596;19;109442;-67
2024/01/16 12:20:28;;;;;;;;;;;4.30;99.90;;;;;;7332172;19;109531;-67
2024/01/16 12:22:56;;;;;;;;;;;4.30;99.90;;;;;;7333244;19;108852;-67
2024/01/16 12:25:24;;;;;;;;;;;4.40;99.90;;;;;;7332651;19;108390;-68
2024/01/16 12:28:17;;;;;;;;;;;4.50;99.90;;;;;;7333061;19;111785;-67
2024/01/16 12:30:58;;;;;;;;;;;4.50;99.90;;;;;;7333454;19;108709;-67
2024/01/16 12:33:25;;;;;;;;;;;4.50;99.90;;;;;;7334695;19;112623;-67
2024/01/16 12:36:01;;;;;;;;;;;4.60;99.90;;;;;;7336093;19;109074;-67
2024/01/16 12:38:28;;;;;;;;;;;4.60;99.90;;;;;;7340410;19;109370;-67
2024/01/16 12:40:55;;;;;;;;;;;4.60;99.90;;;;;;7339541;19;109840;-67
2024/01/16 12:43:23;;;;;;;;;;;4.70;99.90;;;;;;7341993;19;108140;-67
2024/01/16 12:45:56;;;;;;;;;;;4.70;99.90;;;;;;7336811;19;109997;-67
2024/01/16 12:48:27;;;;;;;;;;;4.80;99.90;;;;;;7340135;19;109190;-67
2024/01/16 12:51:06;;;;;;;;;;;4.90;99.90;;;;;;7338065;19;110367;-67
2024/01/16 12:53:36;;;;;;;;;;;4.90;99.90;;;;;;7338592;19;109147;-68
2024/01/16 12:56:04;;;;;;;;;;;4.90;99.90;;;;;;7342699;19;109511;-67
2024/01/16 12:58:35;;;;;;;;;;;4.90;99.90;;;;;;7336542;19;109498;-67
2024/01/16 13:01:25;;;;;;;;;;;4.90;99.90;;;;;;7342507;19;110473;-67
2024/01/16 13:04:05;;;;;;;;;;;4.80;99.90;;;;;;7340079;19;108459;-67
2024/01/16 13:06:33;;;;;;;;;;;4.90;99.90;;;;;;7337016;19;112901;-68
2024/01/16 13:09:15;;;;;;;;;;;5.00;99.90;;;;;;7339169;19;110475;-67
2024/01/16 13:11:48;;;;;;;;;;;5.10;99.90;;;;;;7336014;19;108597;-67
2024/01/16 13:14:15;;;;;;;;;;;5.10;99.90;;;;;;7339838;19;108777;-69
2024/01/16 13:16:42;;;;;;;;;;;5.20;99.90;;;;;;7336840;19;109365;-73
2024/01/16 13:19:10;;;;;;;;;;;5.20;99.90;;;;;;7344199;19;108647;-68
2024/01/16 13:21:38;;;;;;;;;;;5.20;99.90;;;;;;7332590;19;111059;-68
2024/01/16 13:24:06;;;;;;;;;;;5.20;99.90;;;;;;7338033;19;109535;-70
2024/01/16 13:33:04;;;;;;;;;;;5.20;99.90;;;;;;7334293;19;109502;-71
2024/01/16 13:35:32;;;;;;;;;;;5.30;99.90;;;;;;7335172;19;109032;-68
2024/01/16 13:38:00;;;;;;;;;;;5.30;99.90;;;;;;7337440;19;111374;-67
2024/01/16 13:40:27;;;;;;;;;;;5.30;99.90;;;;;;7334460;19;108843;-67
2024/01/16 13:42:54;;;;;;;;;;;5.30;99.90;;;;;;7341581;19;109900;-67
2024/01/16 13:45:21;;;;;;;;;;;5.30;99.90;;;;;;7331521;19;109314;-67
2024/01/16 13:47:50;;;;;;;;;;;5.40;99.90;;;;;;7337894;19;108829;-66
2024/01/16 13:50:17;;;;;;;;;;;5.30;99.90;;;;;;7336652;19;110312;-67
2024/01/16 13:52:44;;;;;;;;;;;5.40;99.90;;;;;;7340738;19;108498;-67
2024/01/16 13:55:11;;;;;;;;;;;5.50;99.90;;;;;;7340693;19;108652;-68
2024/01/16 13:57:39;;;;;;;;;;;5.60;99.90;;;;;;7331884;19;111903;-68
2024/01/16 14:00:08;;;;;;;;;;;5.60;99.90;;;;;;7336658;19;108586;-67
2024/01/16 14:02:37;;;;;;;;;;;5.60;99.90;;;;;;7337553;19;108776;-67
2024/01/16 14:05:05;;;;;;;;;;;5.60;99.90;;;;;;7339275;19;110156;-67
2024/01/16 14:07:32;;;;;;;;;;;5.60;99.90;;;;;;7337451;19;108998;-68
2024/01/16 14:10:00;;;;;;;;;;;5.70;99.90;;;;;;7334851;19;109096;-67
2024/01/16 14:12:30;;;;;;;;;;;5.70;99.90;;;;;;7338741;19;109406;-67
2024/01/16 14:14:57;;;;;;;;;;;5.60;99.90;;;;;;7334311;19;111174;-67
2024/01/16 14:17:26;;;;;;;;;;;5.70;99.90;;;;;;7337730;19;109214;-67
2024/01/16 14:19:53;;;;;;;;;;;5.80;99.90;;;;;;7339977;19;109213;-68
2024/01/16 14:22:20;;;;;;;;;;;5.80;99.90;;;;;;7340654;19;108908;-68
2024/01/16 14:24:50;;;;;;;;;;;5.80;99.90;;;;;;7340357;19;110201;-67
2024/01/16 14:27:17;;;;;;;;;;;5.80;99.90;;;;;;7343067;19;109158;-67
2024/01/16 14:29:45;;;;;;;;;;;5.80;99.90;;;;;;7337439;19;110100;-67
2024/01/16 14:32:15;;;;;;;;;;;5.80;99.90;;;;;;7337387;19;108647;-67